createdAt,value
2022-10-11T00:01:32.479Z,5.85
2022-10-11T00:04:03.643Z,5.43
2022-10-11T00:06:32.384Z,5.40
2022-10-11T00:09:03.189Z,4.47
2022-10-11T00:11:31.708Z,5.28
2022-10-11T00:14:00.890Z,5.18
2022-10-11T00:16:29.681Z,4.72
2022-10-11T00:18:59.418Z,4.80
2022-10-11T00:21:29.580Z,4.63
2022-10-11T00:24:00.199Z,4.72
2022-10-11T00:26:28.650Z,4.80
2022-10-11T00:28:58.335Z,5.45
2022-10-11T00:31:26.826Z,5.22
2022-10-11T00:33:58.104Z,4.97
2022-10-11T00:36:34.136Z,5.13
2022-10-11T00:39:02.795Z,4.43
2022-10-11T00:41:31.320Z,4.22
2022-10-11T00:44:11.194Z,4.32
2022-10-11T00:46:43.929Z,4.40
2022-10-11T00:49:23.561Z,4.55
2022-10-11T00:51:59.540Z,4.18
2022-10-11T00:54:32.653Z,4.85
2022-10-11T00:57:07.709Z,4.85
2022-10-11T00:59:41.708Z,4.53
2022-10-11T01:02:11.626Z,4.15
2022-10-11T01:04:41.294Z,4.40
2022-10-11T01:07:12.488Z,5.00
2022-10-11T01:09:41.655Z,5.35
2022-10-11T01:12:17.245Z,4.10
2022-10-11T01:15:13.186Z,4.68
2022-10-11T01:17:52.190Z,5.13
2022-10-11T01:20:40.369Z,4.88
2022-10-11T01:23:46.068Z,4.30
2022-10-11T01:26:43.992Z,4.32
2022-10-11T01:29:22.727Z,4.53
2022-10-11T01:32:00.478Z,4.65
2022-10-11T01:34:34.975Z,4.57
2022-10-11T01:37:09.110Z,4.72
2022-10-11T01:39:45.135Z,4.60
2022-10-11T01:42:16.033Z,5.35
2022-10-11T01:44:49.359Z,5.72
2022-10-11T01:47:23.435Z,5.75
2022-10-11T01:50:03.116Z,5.53
2022-10-11T01:53:21.346Z,5.40
2022-10-11T01:55:56.641Z,5.00
2022-10-11T01:58:44.701Z,5.20
2022-10-11T02:01:32.552Z,4.60
2022-10-11T02:04:14.270Z,4.45
2022-10-11T02:06:52.290Z,4.18
2022-10-11T02:09:32.074Z,3.50
2022-10-11T02:12:11.080Z,4.25
2022-10-11T02:14:44.262Z,3.65
2022-10-11T02:17:18.225Z,3.72
2022-10-11T02:19:51.889Z,4.13
2022-10-11T02:22:26.120Z,4.20
2022-10-11T02:25:00.589Z,3.70
2022-10-11T02:27:35.170Z,3.70
2022-10-11T02:30:07.435Z,3.90
2022-10-11T02:32:37.884Z,3.95
2022-10-11T02:35:13.567Z,4.00
2022-10-11T02:37:49.809Z,3.80
2022-10-11T02:40:26.436Z,3.75
2022-10-11T02:42:59.774Z,3.58
2022-10-11T02:45:36.162Z,4.18
2022-10-11T02:48:07.192Z,3.88
2022-10-11T02:50:38.855Z,4.03
2022-10-11T02:53:07.511Z,3.95
2022-10-11T02:55:37.739Z,3.60
2022-10-11T02:58:06.100Z,3.10
2022-10-11T03:00:34.707Z,3.22
2022-10-11T03:03:05.437Z,3.47
2022-10-11T03:05:40.650Z,3.00
2022-10-11T03:08:12.958Z,3.28
2022-10-11T03:10:43.440Z,2.95
2022-10-11T03:13:16.014Z,3.92
2022-10-11T03:16:02.315Z,3.40
2022-10-11T03:18:31.829Z,3.20
2022-10-11T03:21:00.211Z,3.15
2022-10-11T03:23:30.343Z,3.78
2022-10-11T03:25:59.098Z,3.33
2022-10-11T03:28:27.650Z,3.10
2022-10-11T03:30:56.489Z,3.22
2022-10-11T03:33:25.469Z,3.08
2022-10-11T03:35:55.099Z,3.13
2022-10-11T03:38:25.759Z,3.65
2022-10-11T03:40:58.113Z,3.08
2022-10-11T03:43:26.597Z,3.20
2022-10-11T03:45:56.167Z,3.20
2022-10-11T03:48:24.581Z,2.97
2022-10-11T03:50:53.743Z,2.90
2022-10-11T03:53:23.383Z,3.45
2022-10-11T03:55:54.969Z,3.40
2022-10-11T03:58:31.739Z,2.92
2022-10-11T04:01:00.304Z,3.25
2022-10-11T04:03:30.334Z,2.85
2022-10-11T04:06:01.115Z,3.40
2022-10-11T04:08:30.331Z,2.92
2022-10-11T04:10:59.111Z,3.13
2022-10-11T04:13:28.107Z,3.45
2022-10-11T04:15:59.132Z,3.33
2022-10-11T04:18:33.957Z,3.25
2022-10-11T04:21:03.575Z,2.75
2022-10-11T04:23:32.132Z,3.20
2022-10-11T04:26:02.441Z,3.10
2022-10-11T04:28:31.675Z,3.03
2022-10-11T04:31:04.709Z,3.13
2022-10-11T04:33:33.620Z,3.42
2022-10-11T04:36:02.305Z,3.30
2022-10-11T04:38:32.309Z,3.10
2022-10-11T04:41:08.638Z,3.08
2022-10-11T04:43:37.756Z,3.17
2022-10-11T04:46:08.839Z,3.17
2022-10-11T04:48:37.602Z,2.90
2022-10-11T04:51:06.713Z,2.97
2022-10-11T04:53:35.771Z,2.80
2022-10-11T04:56:06.772Z,3.58
2022-10-11T04:58:36.585Z,3.10
2022-10-11T05:01:07.474Z,2.95
2022-10-11T05:03:36.876Z,3.13
2022-10-11T05:06:07.568Z,2.75
2022-10-11T05:08:36.364Z,2.75
2022-10-11T05:11:10.258Z,3.17
2022-10-11T05:13:40.183Z,2.90
2022-10-11T05:16:11.344Z,3.53
2022-10-11T05:18:41.175Z,2.78
2022-10-11T05:21:16.058Z,2.92
2022-10-11T05:23:45.702Z,2.80
2022-10-11T05:26:15.158Z,2.85
2022-10-11T05:28:45.574Z,2.50
2022-10-11T05:31:18.067Z,2.75
2022-10-11T05:33:46.953Z,2.58
2022-10-11T05:36:15.513Z,2.75
2022-10-11T05:38:43.935Z,2.70
2022-10-11T05:41:15.523Z,2.72
2022-10-11T05:43:46.218Z,2.55
2022-10-11T05:46:16.660Z,2.80
2022-10-11T05:48:45.140Z,2.60
2022-10-11T05:51:14.410Z,2.88
2022-10-11T05:53:43.287Z,2.70
2022-10-11T05:56:21.840Z,2.50
2022-10-11T05:58:51.524Z,2.90
2022-10-11T06:01:24.889Z,2.38
2022-10-11T06:03:54.140Z,2.80
2022-10-11T06:06:22.917Z,2.60
2022-10-11T06:08:52.477Z,2.50
2022-10-11T06:11:25.584Z,2.58
2022-10-11T06:13:55.944Z,2.80
2022-10-11T06:16:27.090Z,2.72
2022-10-11T06:18:55.868Z,2.97
2022-10-11T06:21:25.205Z,2.53
2022-10-11T06:24:00.840Z,2.88
2022-10-11T06:26:29.950Z,2.55
2022-10-11T06:28:58.819Z,2.50
2022-10-11T06:31:30.065Z,2.78
2022-10-11T06:34:00.743Z,2.72
2022-10-11T06:36:30.622Z,2.88
2022-10-11T06:39:01.174Z,2.47
2022-10-11T06:41:31.635Z,3.22
2022-10-11T06:44:00.374Z,2.95
2022-10-11T06:46:32.914Z,3.08
2022-10-11T06:49:01.429Z,2.80
2022-10-11T06:51:30.398Z,3.10
2022-10-11T06:54:02.008Z,2.60
2022-10-11T06:56:32.405Z,3.00
2022-10-11T06:59:02.098Z,2.80
2022-10-11T07:01:32.864Z,2.67
2022-10-11T07:04:03.478Z,3.10
2022-10-11T07:06:32.725Z,2.67
2022-10-11T07:09:02.450Z,3.00
2022-10-11T07:11:31.052Z,3.50
2022-10-11T07:14:07.935Z,2.75
2022-10-11T07:16:40.073Z,3.00
2022-10-11T07:19:09.136Z,3.10
2022-10-11T07:21:38.155Z,4.70
2022-10-11T07:24:07.910Z,3.65
2022-10-11T07:26:38.707Z,3.13
2022-10-11T07:29:08.627Z,3.33
2022-10-11T07:31:41.001Z,3.20
2022-10-11T07:34:11.872Z,3.53
2022-10-11T07:36:40.852Z,3.05
2022-10-11T07:39:10.809Z,3.28
2022-10-11T07:41:45.453Z,3.40
2022-10-11T07:44:15.161Z,3.42
2022-10-11T07:46:45.242Z,3.13
2022-10-11T07:49:14.182Z,3.63
2022-10-11T07:51:43.029Z,3.05
2022-10-11T07:54:12.981Z,3.35
2022-10-11T07:56:41.816Z,3.78
2022-10-11T07:59:12.418Z,3.10
2022-10-11T08:01:41.597Z,3.17
2022-10-11T08:04:11.911Z,3.10
2022-10-11T08:06:40.868Z,3.17
2022-10-11T08:09:09.744Z,6.93
2022-10-11T08:11:41.273Z,4.10
2022-10-11T08:14:11.648Z,3.25
2022-10-11T08:16:41.287Z,2.85
2022-10-11T08:19:11.955Z,3.08
2022-10-11T08:21:40.749Z,2.60
2022-10-11T08:24:09.689Z,4.80
2022-10-11T08:26:38.763Z,3.65
2022-10-11T08:29:08.642Z,2.90
2022-10-11T08:31:37.220Z,3.05
2022-10-11T08:34:05.740Z,3.47
2022-10-11T08:36:37.795Z,4.00
2022-10-11T08:39:08.931Z,3.47
2022-10-11T08:41:42.586Z,3.08
2022-10-11T08:44:58.458Z,3.38
2022-10-11T08:47:27.837Z,3.03
2022-10-11T08:49:56.606Z,3.70
2022-10-11T08:52:33.721Z,3.30
2022-10-11T08:55:06.257Z,3.30
2022-10-11T08:57:38.438Z,2.88
2022-10-11T09:00:14.573Z,3.25
2022-10-11T09:03:07.630Z,2.65
2022-10-11T09:05:54.659Z,2.63
2022-10-11T09:08:32.551Z,3.03
2022-10-11T09:11:11.564Z,2.78
2022-10-11T09:14:05.756Z,2.50
2022-10-11T09:16:50.274Z,2.88
2022-10-11T09:19:47.863Z,3.22
2022-10-11T09:22:29.519Z,3.10
2022-10-11T09:25:13.153Z,2.63
2022-10-11T09:28:02.228Z,2.72
2022-10-11T09:30:32.323Z,3.05
2022-10-11T09:33:12.253Z,3.05
2022-10-11T09:35:45.119Z,3.10
2022-10-11T09:38:23.228Z,2.88
2022-10-11T09:41:08.533Z,3.30
2022-10-11T09:43:37.498Z,3.05
2022-10-11T09:46:18.968Z,3.08
2022-10-11T09:48:48.777Z,3.63
2022-10-11T09:51:22.319Z,3.08
2022-10-11T09:53:55.764Z,3.08
2022-10-11T09:56:28.842Z,2.88
2022-10-11T09:59:27.827Z,2.78
2022-10-11T10:02:23.634Z,2.80
2022-10-11T10:05:04.818Z,2.75
2022-10-11T10:07:35.669Z,2.78
2022-10-11T10:10:28.503Z,2.30
2022-10-11T10:13:01.690Z,2.58
2022-10-11T10:15:32.747Z,2.65
2022-10-11T10:18:02.174Z,2.72
2022-10-11T10:20:35.555Z,2.60
2022-10-11T10:23:11.422Z,2.35
2022-10-11T10:25:43.500Z,2.60
2022-10-11T10:28:24.135Z,2.60
2022-10-11T10:30:55.605Z,2.35
2022-10-11T10:33:25.917Z,2.78
2022-10-11T10:35:58.647Z,2.55
2022-10-11T10:38:32.116Z,3.03
2022-10-11T10:41:04.622Z,2.00
2022-10-11T10:43:38.704Z,2.20
2022-10-11T10:46:29.369Z,4.30
2022-10-11T10:49:41.545Z,2.75
2022-10-11T10:52:21.876Z,2.92
2022-10-11T10:54:58.098Z,2.55
2022-10-11T10:57:34.969Z,2.30
2022-10-11T11:00:15.696Z,2.88
2022-10-11T11:02:52.431Z,2.50
2022-10-11T11:05:43.088Z,2.85
2022-10-11T11:08:18.673Z,2.22
2022-10-11T11:10:56.683Z,2.35
2022-10-11T11:13:33.295Z,2.40
2022-10-11T11:16:15.077Z,2.80
2022-10-11T11:18:53.556Z,2.35
2022-10-11T11:21:34.280Z,2.47
2022-10-11T11:24:17.204Z,2.45
2022-10-11T11:26:52.394Z,2.40
2022-10-11T11:29:55.379Z,1.92
2022-10-11T11:32:40.309Z,2.28
2022-10-11T11:35:16.454Z,1.60
2022-10-11T11:37:48.407Z,1.98
2022-10-11T11:40:19.862Z,2.30
2022-10-11T11:42:52.239Z,2.00
2022-10-11T11:45:26.455Z,1.90
2022-10-11T11:48:03.841Z,2.10
2022-10-11T11:50:40.450Z,2.20
2022-10-11T11:53:16.489Z,1.90
2022-10-11T11:55:54.782Z,2.00
2022-10-11T11:58:37.276Z,2.15
2022-10-11T12:01:26.462Z,2.17
2022-10-11T12:04:04.838Z,2.00
2022-10-11T12:06:37.923Z,1.90
2022-10-11T12:09:22.026Z,1.50
2022-10-11T12:11:55.902Z,2.00
2022-10-11T12:14:37.909Z,2.10
2022-10-11T12:17:18.499Z,2.28
2022-10-11T12:20:17.567Z,1.92
2022-10-11T12:23:01.570Z,2.00
2022-10-11T12:25:45.635Z,2.30
2022-10-11T12:29:02.175Z,2.30
2022-10-11T12:31:33.226Z,2.08
2022-10-11T12:34:34.009Z,2.28
2022-10-11T12:37:42.620Z,1.90
2022-10-11T12:40:43.152Z,2.30
2022-10-11T12:43:24.370Z,2.70
2022-10-11T12:45:53.278Z,2.22
2022-10-11T12:48:50.767Z,2.28
2022-10-11T12:51:32.544Z,2.60
2022-10-11T12:54:29.100Z,2.55
2022-10-11T12:57:27.213Z,2.63
2022-10-11T12:59:56.056Z,2.38
2022-10-11T13:02:30.538Z,2.22
2022-10-11T13:05:09.489Z,2.75
2022-10-11T13:07:37.964Z,2.08
2022-10-11T13:10:15.384Z,2.15
2022-10-11T13:12:47.399Z,2.45
2022-10-11T13:15:19.813Z,2.20
2022-10-11T13:17:50.751Z,2.28
2022-10-11T13:20:22.262Z,2.50
2022-10-11T13:22:55.142Z,2.65
2022-10-11T13:25:30.215Z,2.40
2022-10-11T13:28:00.151Z,2.95
2022-10-11T13:30:33.444Z,2.22
2022-10-11T13:33:03.225Z,2.10
2022-10-11T13:35:36.908Z,2.55
2022-10-11T13:38:11.009Z,2.72
2022-10-11T13:40:48.685Z,3.10
2022-10-11T13:43:28.654Z,6.00
2022-10-11T13:45:59.068Z,6.82
2022-10-11T13:48:31.958Z,7.82
2022-10-11T13:51:08.339Z,5.85
2022-10-11T13:53:38.344Z,2.58
2022-10-11T13:56:12.786Z,4.72
2022-10-11T13:58:47.833Z,3.50
2022-10-11T14:01:21.438Z,3.42
2022-10-11T14:03:56.846Z,2.38
2022-10-11T14:06:46.012Z,3.60
2022-10-11T14:09:25.566Z,4.35
2022-10-11T14:11:56.294Z,3.05
2022-10-11T14:14:40.598Z,2.80
2022-10-11T14:17:21.589Z,2.58
2022-10-11T14:20:14.169Z,2.58
2022-10-11T14:22:43.034Z,2.80
2022-10-11T14:25:11.519Z,2.58
2022-10-11T14:27:42.780Z,2.45
2022-10-11T14:30:27.424Z,2.42
2022-10-11T14:33:03.240Z,3.10
2022-10-11T14:35:33.777Z,3.78
2022-10-11T14:38:02.928Z,3.53
2022-10-11T14:40:38.226Z,2.83
2022-10-11T14:43:09.687Z,3.00
2022-10-11T14:45:38.246Z,2.78
2022-10-11T14:48:07.295Z,3.10
2022-10-11T14:50:42.033Z,3.13
2022-10-11T14:53:13.322Z,3.30
2022-10-11T14:55:43.462Z,2.38
2022-10-11T14:58:17.647Z,3.03
2022-10-11T15:00:48.560Z,2.75
2022-10-11T15:03:17.357Z,3.10
2022-10-11T15:05:47.144Z,2.88
2022-10-11T15:08:17.121Z,2.67
2022-10-11T15:10:45.430Z,2.50
2022-10-11T15:13:16.736Z,3.00
2022-10-11T15:15:48.939Z,3.50
2022-10-11T15:18:19.002Z,2.63
2022-10-11T15:20:47.983Z,2.88
2022-10-11T15:23:26.582Z,3.38
2022-10-11T15:25:57.400Z,2.97
2022-10-11T15:28:30.812Z,2.97
2022-10-11T15:31:00.084Z,3.05
2022-10-11T15:33:36.724Z,2.88
2022-10-11T15:36:06.123Z,2.58
2022-10-11T15:38:37.513Z,3.10
2022-10-11T15:41:08.840Z,3.05
2022-10-11T15:43:46.458Z,3.42
2022-10-11T15:46:49.078Z,3.28
2022-10-11T15:49:19.771Z,2.70
2022-10-11T15:51:48.705Z,4.00
2022-10-11T15:54:32.018Z,3.80
2022-10-11T15:57:07.318Z,3.72
2022-10-11T15:59:37.767Z,2.70
2022-10-11T16:02:07.274Z,2.90
2022-10-11T16:04:37.167Z,3.08
2022-10-11T16:07:11.624Z,3.38
2022-10-11T16:09:44.529Z,2.95
2022-10-11T16:12:31.557Z,3.35
2022-10-11T16:15:03.809Z,3.67
2022-10-11T16:17:34.744Z,3.15
2022-10-11T16:20:07.404Z,3.05
2022-10-11T16:22:37.771Z,3.17
2022-10-11T16:25:07.533Z,3.70
2022-10-11T16:27:42.510Z,3.55
2022-10-11T16:30:27.644Z,3.47
2022-10-11T16:32:58.896Z,2.88
2022-10-11T16:35:32.262Z,3.75
2022-10-11T16:38:02.301Z,3.65
2022-10-11T16:40:31.675Z,3.30
2022-10-11T16:43:07.501Z,3.25
2022-10-11T16:45:38.639Z,3.20
2022-10-11T16:48:09.884Z,3.25
2022-10-11T16:50:39.790Z,3.65
2022-10-11T16:53:08.767Z,3.70
2022-10-11T16:55:41.599Z,3.83
2022-10-11T16:58:13.164Z,3.55
2022-10-11T17:00:45.302Z,4.93
2022-10-11T17:03:25.087Z,3.95
2022-10-11T17:05:56.009Z,3.55
2022-10-11T17:08:32.995Z,3.50
2022-10-11T17:11:03.337Z,3.03
2022-10-11T17:13:32.686Z,3.72
2022-10-11T17:16:06.067Z,3.17
2022-10-11T17:18:36.816Z,3.40
2022-10-11T17:21:07.295Z,3.58
2022-10-11T17:45:28.340Z,3.05
2022-10-11T17:48:21.909Z,2.55
2022-10-11T17:50:52.035Z,3.30
2022-10-11T17:53:35.396Z,2.88
2022-10-11T17:56:20.990Z,3.20
2022-10-11T17:59:16.216Z,2.80
2022-10-11T18:01:57.231Z,3.50
2022-10-11T18:04:30.214Z,3.33
2022-10-11T18:07:00.182Z,3.28
2022-10-11T18:09:29.458Z,3.55
2022-10-11T18:11:58.846Z,3.25
2022-10-11T18:14:33.487Z,3.15
2022-10-11T18:17:03.951Z,3.20
2022-10-11T18:19:33.041Z,3.17
2022-10-11T18:22:06.829Z,3.13
2022-10-11T18:24:41.908Z,3.28
2022-10-11T18:27:11.495Z,3.00
2022-10-11T18:29:41.500Z,2.78
2022-10-11T18:32:12.434Z,3.08
2022-10-11T18:34:41.143Z,3.45
2022-10-11T18:37:09.911Z,3.40
2022-10-11T18:39:38.282Z,3.80
2022-10-11T18:42:08.272Z,3.85
2022-10-11T18:44:37.180Z,3.20
2022-10-11T18:47:08.127Z,2.95
2022-10-11T18:49:40.152Z,3.20
2022-10-11T18:52:10.065Z,4.07
2022-10-11T18:54:39.192Z,4.80
2022-10-11T18:57:10.415Z,4.03
2022-10-11T18:59:40.119Z,3.30
2022-10-11T19:02:10.749Z,3.47
2022-10-11T19:04:48.900Z,4.20
2022-10-11T19:07:19.146Z,3.22
2022-10-11T19:09:49.630Z,2.72
2022-10-11T19:12:18.361Z,2.80
2022-10-11T19:14:46.904Z,3.00
2022-10-11T19:17:22.642Z,3.03
2022-10-11T19:19:53.807Z,3.20
2022-10-11T19:22:22.422Z,3.40
2022-10-11T19:24:50.930Z,3.53
2022-10-11T19:27:22.668Z,3.13
2022-10-11T19:29:52.443Z,3.70
2022-10-11T19:32:21.402Z,3.33
2022-10-11T19:34:57.911Z,3.03
2022-10-11T19:37:27.221Z,3.13
2022-10-11T19:39:57.087Z,3.20
2022-10-11T19:42:25.603Z,3.35
2022-10-11T19:44:55.368Z,3.45
2022-10-11T19:47:24.054Z,3.13
2022-10-11T19:49:53.025Z,3.20
2022-10-11T19:52:24.449Z,3.38
2022-10-11T19:54:53.010Z,3.45
2022-10-11T19:57:21.975Z,2.97
2022-10-11T19:59:50.653Z,3.65
2022-10-11T20:02:19.235Z,3.03
2022-10-11T20:04:53.141Z,2.85
2022-10-11T20:07:23.696Z,2.95
2022-10-11T20:09:52.477Z,3.15
2022-10-11T20:12:21.312Z,2.70
2022-10-11T20:14:49.947Z,2.90
2022-10-11T20:17:18.884Z,3.30
2022-10-11T20:19:47.474Z,2.47
2022-10-11T20:22:16.116Z,3.28
2022-10-11T20:24:46.360Z,3.15
2022-10-11T20:27:15.040Z,2.67
2022-10-11T20:29:43.542Z,2.80
2022-10-11T20:32:19.174Z,3.00
2022-10-11T20:34:48.293Z,3.17
2022-10-11T20:37:23.227Z,3.08
2022-10-11T20:39:57.048Z,2.70
2022-10-11T20:42:29.769Z,2.75
2022-10-11T20:44:59.237Z,2.83
2022-10-11T20:47:27.618Z,2.58
2022-10-11T20:49:56.137Z,2.60
2022-10-11T20:52:25.950Z,2.72
2022-10-11T20:54:57.914Z,2.50
2022-10-11T20:57:28.374Z,2.78
2022-10-11T20:59:57.144Z,3.00
2022-10-11T21:02:25.749Z,3.00
2022-10-11T21:04:57.733Z,2.88
2022-10-11T21:07:26.337Z,2.80
2022-10-11T21:09:56.687Z,2.95
2022-10-11T21:12:25.528Z,2.80
2022-10-11T21:14:54.371Z,2.65
2022-10-11T21:17:23.206Z,2.60
2022-10-11T21:19:51.741Z,2.97
2022-10-11T21:22:20.521Z,2.30
2022-10-11T21:24:52.477Z,3.00
2022-10-11T21:27:22.782Z,2.80
2022-10-11T21:29:51.389Z,3.10
2022-10-11T21:32:20.771Z,3.20
2022-10-11T21:34:49.184Z,2.45
2022-10-11T21:37:18.345Z,2.63
2022-10-11T21:39:46.882Z,3.00
2022-10-11T21:42:15.297Z,2.45
2022-10-11T21:44:45.514Z,2.80
2022-10-11T21:47:14.650Z,2.78
2022-10-11T21:49:43.865Z,2.85
2022-10-11T21:52:12.474Z,2.60
2022-10-11T21:54:41.574Z,3.08
2022-10-11T21:57:11.561Z,2.75
2022-10-11T21:59:40.622Z,3.00
2022-10-11T22:02:11.617Z,3.30
2022-10-11T22:04:40.155Z,3.30
2022-10-11T22:07:09.089Z,2.83
2022-10-11T22:09:38.187Z,2.85
2022-10-11T22:12:06.972Z,2.88
2022-10-11T22:14:36.301Z,3.15
2022-10-11T22:17:04.760Z,3.38
2022-10-11T22:19:35.314Z,2.53
2022-10-11T22:22:03.869Z,3.50
2022-10-11T22:24:32.492Z,2.72
2022-10-11T22:27:01.124Z,2.70
2022-10-11T22:29:34.286Z,2.95
2022-10-11T22:32:03.100Z,3.00
2022-10-11T22:34:32.774Z,2.85
2022-10-11T22:37:03.478Z,3.10
2022-10-11T22:39:32.320Z,3.63
2022-10-11T22:42:00.943Z,2.72
2022-10-11T22:44:29.597Z,2.92
2022-10-11T22:46:58.051Z,3.25
2022-10-11T22:49:27.045Z,3.15
2022-10-11T22:51:56.004Z,2.65
2022-10-11T22:54:26.524Z,2.80
2022-10-11T22:56:55.481Z,2.88
2022-10-11T22:59:23.844Z,3.10
2022-10-11T23:01:52.566Z,2.70
2022-10-11T23:04:21.438Z,2.92
2022-10-11T23:06:50.222Z,2.97
2022-10-11T23:09:18.762Z,3.10
2022-10-11T23:11:49.407Z,3.17
2022-10-11T23:14:17.858Z,2.40
2022-10-11T23:16:46.542Z,2.60
2022-10-11T23:19:15.215Z,2.67
2022-10-11T23:21:43.827Z,3.05
2022-10-11T23:24:12.760Z,2.55
2022-10-11T23:26:41.463Z,3.03
2022-10-11T23:29:11.990Z,2.55
2022-10-11T23:31:40.964Z,2.38
2022-10-11T23:34:09.364Z,2.40
2022-10-11T23:36:37.942Z,1.83
2022-10-11T23:39:07.814Z,2.30
2022-10-11T23:41:36.431Z,2.00
2022-10-11T23:44:05.117Z,2.30
2022-10-11T23:46:35.718Z,2.20
2022-10-11T23:49:04.425Z,2.20
2022-10-11T23:51:33.248Z,2.10
2022-10-11T23:54:02.154Z,2.03
2022-10-11T23:56:30.608Z,1.75
2022-10-11T23:58:59.551Z,2.00
